sensor_id;sensor_type;location;lat;lon;timestamp;P1;durP1;ratioP1;P2;durP2;ratioP2
6513;SDS011;3290;47.716;9.070;2023-07-29T00:00:30;4.07;;;3.30;;
6513;SDS011;3290;47.716;9.070;2023-07-29T00:02:55;4.53;;;3.13;;
6513;SDS011;3290;47.716;9.070;2023-07-29T00:05:20;4.67;;;3.67;;
6513;SDS011;3290;47.716;9.070;2023-07-29T00:07:46;3.60;;;2.77;;
6513;SDS011;3290;47.716;9.070;2023-07-29T00:10:11;5.07;;;3.00;;
6513;SDS011;3290;47.716;9.070;2023-07-29T00:12:37;4.67;;;2.97;;
6513;SDS011;3290;47.716;9.070;2023-07-29T00:15:02;5.10;;;3.20;;
6513;SDS011;3290;47.716;9.070;2023-07-29T00:17:27;4.53;;;3.47;;
6513;SDS011;3290;47.716;9.070;2023-07-29T00:19:53;6.87;;;3.30;;
6513;SDS011;3290;47.716;9.070;2023-07-29T00:22:18;3.20;;;2.87;;
6513;SDS011;3290;47.716;9.070;2023-07-29T00:24:43;8.93;;;2.93;;
6513;SDS011;3290;47.716;9.070;2023-07-29T00:27:09;2.47;;;2.27;;
6513;SDS011;3290;47.716;9.070;2023-07-29T00:29:34;5.70;;;3.27;;
6513;SDS011;3290;47.716;9.070;2023-07-29T00:31:59;3.80;;;3.03;;
6513;SDS011;3290;47.716;9.070;2023-07-29T00:34:25;3.23;;;2.90;;
6513;SDS011;3290;47.716;9.070;2023-07-29T00:36:50;6.27;;;3.67;;
6513;SDS011;3290;47.716;9.070;2023-07-29T00:39:15;5.87;;;3.87;;
6513;SDS011;3290;47.716;9.070;2023-07-29T00:41:41;3.80;;;3.17;;
6513;SDS011;3290;47.716;9.070;2023-07-29T00:44:06;3.67;;;3.07;;
6513;SDS011;3290;47.716;9.070;2023-07-29T00:46:33;4.80;;;3.37;;
6513;SDS011;3290;47.716;9.070;2023-07-29T00:48:59;6.40;;;4.30;;
6513;SDS011;3290;47.716;9.070;2023-07-29T00:51:25;7.77;;;4.00;;
6513;SDS011;3290;47.716;9.070;2023-07-29T00:53:50;4.43;;;3.33;;
6513;SDS011;3290;47.716;9.070;2023-07-29T00:56:16;4.33;;;3.03;;
6513;SDS011;3290;47.716;9.070;2023-07-29T00:58:42;12.03;;;4.00;;
6513;SDS011;3290;47.716;9.070;2023-07-29T01:01:07;7.27;;;3.70;;
6513;SDS011;3290;47.716;9.070;2023-07-29T01:03:33;4.30;;;3.20;;
6513;SDS011;3290;47.716;9.070;2023-07-29T01:06:17;7.80;;;3.33;;
6513;SDS011;3290;47.716;9.070;2023-07-29T01:09:04;5.73;;;3.10;;
6513;SDS011;3290;47.716;9.070;2023-07-29T01:11:48;5.83;;;3.33;;
6513;SDS011;3290;47.716;9.070;2023-07-29T01:15:11;4.50;;;3.30;;
6513;SDS011;3290;47.716;9.070;2023-07-29T01:17:36;5.43;;;3.37;;
6513;SDS011;3290;47.716;9.070;2023-07-29T01:20:15;6.83;;;3.90;;
6513;SDS011;3290;47.716;9.070;2023-07-29T01:22:41;3.33;;;3.00;;
6513;SDS011;3290;47.716;9.070;2023-07-29T01:25:07;6.23;;;3.53;;
6513;SDS011;3290;47.716;9.070;2023-07-29T01:27:32;5.73;;;3.70;;
6513;SDS011;3290;47.716;9.070;2023-07-29T01:29:58;6.30;;;3.37;;
6513;SDS011;3290;47.716;9.070;2023-07-29T01:35:41;5.13;;;3.50;;
6513;SDS011;3290;47.716;9.070;2023-07-29T01:40:27;4.82;;;4.00;;
6513;SDS011;3290;47.716;9.070;2023-07-29T01:42:53;4.90;;;3.60;;
6513;SDS011;3290;47.716;9.070;2023-07-29T01:45:19;4.77;;;3.63;;
6513;SDS011;3290;47.716;9.070;2023-07-29T01:47:48;4.77;;;2.93;;
6513;SDS011;3290;47.716;9.070;2023-07-29T01:50:13;9.13;;;3.63;;
6513;SDS011;3290;47.716;9.070;2023-07-29T01:52:39;3.87;;;3.13;;
6513;SDS011;3290;47.716;9.070;2023-07-29T01:55:04;7.40;;;4.03;;
6513;SDS011;3290;47.716;9.070;2023-07-29T01:57:30;3.93;;;3.00;;
6513;SDS011;3290;47.716;9.070;2023-07-29T01:59:55;5.50;;;4.27;;
6513;SDS011;3290;47.716;9.070;2023-07-29T02:02:21;5.60;;;3.00;;
6513;SDS011;3290;47.716;9.070;2023-07-29T02:04:46;7.00;;;4.00;;
6513;SDS011;3290;47.716;9.070;2023-07-29T02:07:16;6.80;;;3.80;;
6513;SDS011;3290;47.716;9.070;2023-07-29T02:09:41;7.30;;;3.90;;
6513;SDS011;3290;47.716;9.070;2023-07-29T02:12:07;6.60;;;4.10;;
6513;SDS011;3290;47.716;9.070;2023-07-29T02:14:32;4.40;;;3.77;;
6513;SDS011;3290;47.716;9.070;2023-07-29T02:16:58;8.40;;;5.10;;
6513;SDS011;3290;47.716;9.070;2023-07-29T02:19:23;7.00;;;3.17;;
6513;SDS011;3290;47.716;9.070;2023-07-29T02:21:48;3.97;;;3.30;;
6513;SDS011;3290;47.716;9.070;2023-07-29T02:24:14;3.30;;;2.97;;
6513;SDS011;3290;47.716;9.070;2023-07-29T02:26:40;3.57;;;2.93;;
6513;SDS011;3290;47.716;9.070;2023-07-29T02:29:06;5.00;;;3.10;;
6513;SDS011;3290;47.716;9.070;2023-07-29T02:31:32;6.33;;;2.90;;
6513;SDS011;3290;47.716;9.070;2023-07-29T02:33:57;4.87;;;3.70;;
6513;SDS011;3290;47.716;9.070;2023-07-29T02:36:23;4.30;;;3.50;;
6513;SDS011;3290;47.716;9.070;2023-07-29T02:38:48;5.03;;;3.63;;
6513;SDS011;3290;47.716;9.070;2023-07-29T02:41:14;4.30;;;3.63;;
6513;SDS011;3290;47.716;9.070;2023-07-29T02:43:41;4.17;;;3.40;;
6513;SDS011;3290;47.716;9.070;2023-07-29T02:46:07;4.10;;;3.60;;
6513;SDS011;3290;47.716;9.070;2023-07-29T02:48:32;4.50;;;3.20;;
6513;SDS011;3290;47.716;9.070;2023-07-29T02:50:58;5.70;;;3.20;;
6513;SDS011;3290;47.716;9.070;2023-07-29T02:53:24;5.30;;;3.20;;
6513;SDS011;3290;47.716;9.070;2023-07-29T02:55:49;7.23;;;3.80;;
6513;SDS011;3290;47.716;9.070;2023-07-29T02:58:15;5.33;;;2.93;;
6513;SDS011;3290;47.716;9.070;2023-07-29T03:00:40;4.20;;;3.60;;
6513;SDS011;3290;47.716;9.070;2023-07-29T03:03:07;3.93;;;3.53;;
6513;SDS011;3290;47.716;9.070;2023-07-29T03:05:33;12.10;;;4.43;;
6513;SDS011;3290;47.716;9.070;2023-07-29T03:07:59;6.47;;;3.93;;
6513;SDS011;3290;47.716;9.070;2023-07-29T03:10:24;5.73;;;3.30;;
6513;SDS011;3290;47.716;9.070;2023-07-29T03:12:50;3.70;;;3.40;;
6513;SDS011;3290;47.716;9.070;2023-07-29T03:15:16;4.60;;;3.70;;
6513;SDS011;3290;47.716;9.070;2023-07-29T03:17:41;4.00;;;3.60;;
6513;SDS011;3290;47.716;9.070;2023-07-29T03:20:07;4.33;;;3.60;;
6513;SDS011;3290;47.716;9.070;2023-07-29T03:22:33;4.97;;;3.77;;
6513;SDS011;3290;47.716;9.070;2023-07-29T03:24:58;9.43;;;4.23;;
6513;SDS011;3290;47.716;9.070;2023-07-29T03:27:23;5.13;;;3.73;;
6513;SDS011;3290;47.716;9.070;2023-07-29T03:29:49;6.63;;;3.90;;
6513;SDS011;3290;47.716;9.070;2023-07-29T03:32:14;5.27;;;3.60;;
6513;SDS011;3290;47.716;9.070;2023-07-29T03:34:39;4.13;;;3.57;;
6513;SDS011;3290;47.716;9.070;2023-07-29T03:37:05;7.70;;;3.70;;
6513;SDS011;3290;47.716;9.070;2023-07-29T03:39:31;4.40;;;4.00;;
6513;SDS011;3290;47.716;9.070;2023-07-29T03:41:57;8.47;;;4.07;;
6513;SDS011;3290;47.716;9.070;2023-07-29T03:44:22;4.83;;;3.70;;
6513;SDS011;3290;47.716;9.070;2023-07-29T03:46:48;6.67;;;3.60;;
6513;SDS011;3290;47.716;9.070;2023-07-29T03:49:13;11.20;;;4.40;;
6513;SDS011;3290;47.716;9.070;2023-07-29T03:51:38;7.43;;;4.00;;
6513;SDS011;3290;47.716;9.070;2023-07-29T03:54:04;4.53;;;3.80;;
6513;SDS011;3290;47.716;9.070;2023-07-29T03:56:29;6.60;;;3.47;;
6513;SDS011;3290;47.716;9.070;2023-07-29T03:59:01;6.90;;;4.30;;
6513;SDS011;3290;47.716;9.070;2023-07-29T04:01:28;5.00;;;3.57;;
6513;SDS011;3290;47.716;9.070;2023-07-29T04:03:54;4.93;;;3.80;;
6513;SDS011;3290;47.716;9.070;2023-07-29T04:06:19;14.33;;;4.50;;
6513;SDS011;3290;47.716;9.070;2023-07-29T04:08:45;4.97;;;4.03;;
6513;SDS011;3290;47.716;9.070;2023-07-29T04:11:10;4.27;;;3.50;;
6513;SDS011;3290;47.716;9.070;2023-07-29T04:13:36;4.90;;;3.83;;
6513;SDS011;3290;47.716;9.070;2023-07-29T04:16:02;5.23;;;3.73;;
6513;SDS011;3290;47.716;9.070;2023-07-29T04:18:29;4.40;;;4.00;;
6513;SDS011;3290;47.716;9.070;2023-07-29T04:20:54;6.37;;;4.40;;
6513;SDS011;3290;47.716;9.070;2023-07-29T04:23:19;5.83;;;4.50;;
6513;SDS011;3290;47.716;9.070;2023-07-29T04:25:45;6.40;;;4.13;;
6513;SDS011;3290;47.716;9.070;2023-07-29T04:28:10;5.53;;;3.40;;
6513;SDS011;3290;47.716;9.070;2023-07-29T04:30:36;5.03;;;4.37;;
6513;SDS011;3290;47.716;9.070;2023-07-29T04:33:01;11.10;;;6.20;;
6513;SDS011;3290;47.716;9.070;2023-07-29T04:35:26;7.13;;;5.73;;
6513;SDS011;3290;47.716;9.070;2023-07-29T04:37:52;10.97;;;6.20;;
6513;SDS011;3290;47.716;9.070;2023-07-29T04:40:17;8.27;;;5.70;;
6513;SDS011;3290;47.716;9.070;2023-07-29T04:42:42;8.60;;;5.93;;
6513;SDS011;3290;47.716;9.070;2023-07-29T04:45:08;8.20;;;6.13;;
6513;SDS011;3290;47.716;9.070;2023-07-29T04:47:33;8.63;;;5.37;;
6513;SDS011;3290;47.716;9.070;2023-07-29T04:49:58;6.80;;;4.60;;
6513;SDS011;3290;47.716;9.070;2023-07-29T04:52:24;9.13;;;4.93;;
6513;SDS011;3290;47.716;9.070;2023-07-29T04:54:50;7.50;;;5.00;;
6513;SDS011;3290;47.716;9.070;2023-07-29T04:57:15;6.73;;;4.73;;
6513;SDS011;3290;47.716;9.070;2023-07-29T04:59:41;7.83;;;4.83;;
6513;SDS011;3290;47.716;9.070;2023-07-29T05:02:06;6.40;;;5.17;;
6513;SDS011;3290;47.716;9.070;2023-07-29T05:04:32;9.57;;;6.27;;
6513;SDS011;3290;47.716;9.070;2023-07-29T05:06:57;10.63;;;5.90;;
6513;SDS011;3290;47.716;9.070;2023-07-29T05:09:23;11.50;;;6.20;;
6513;SDS011;3290;47.716;9.070;2023-07-29T05:11:48;10.47;;;4.97;;
6513;SDS011;3290;47.716;9.070;2023-07-29T05:14:14;9.40;;;6.17;;
6513;SDS011;3290;47.716;9.070;2023-07-29T05:16:42;7.87;;;5.93;;
6513;SDS011;3290;47.716;9.070;2023-07-29T05:19:07;7.70;;;4.73;;
6513;SDS011;3290;47.716;9.070;2023-07-29T05:21:33;8.50;;;5.53;;
6513;SDS011;3290;47.716;9.070;2023-07-29T05:23:58;9.83;;;5.77;;
6513;SDS011;3290;47.716;9.070;2023-07-29T05:26:24;7.93;;;5.63;;
6513;SDS011;3290;47.716;9.070;2023-07-29T05:28:49;9.93;;;5.50;;
6513;SDS011;3290;47.716;9.070;2023-07-29T05:31:14;8.50;;;5.43;;
6513;SDS011;3290;47.716;9.070;2023-07-29T05:33:40;9.53;;;5.80;;
6513;SDS011;3290;47.716;9.070;2023-07-29T05:36:05;8.90;;;5.47;;
6513;SDS011;3290;47.716;9.070;2023-07-29T05:38:31;7.67;;;5.40;;
6513;SDS011;3290;47.716;9.070;2023-07-29T05:40:56;9.70;;;5.27;;
6513;SDS011;3290;47.716;9.070;2023-07-29T05:43:21;6.57;;;4.27;;
6513;SDS011;3290;47.716;9.070;2023-07-29T05:45:49;9.03;;;4.50;;
6513;SDS011;3290;47.716;9.070;2023-07-29T05:48:14;5.23;;;4.03;;
6513;SDS011;3290;47.716;9.070;2023-07-29T05:50:39;7.20;;;4.40;;
6513;SDS011;3290;47.716;9.070;2023-07-29T05:53:05;4.30;;;3.80;;
6513;SDS011;3290;47.716;9.070;2023-07-29T05:55:30;7.03;;;3.40;;
6513;SDS011;3290;47.716;9.070;2023-07-29T05:57:55;6.87;;;3.30;;
6513;SDS011;3290;47.716;9.070;2023-07-29T06:00:21;5.53;;;4.47;;
6513;SDS011;3290;47.716;9.070;2023-07-29T06:02:46;7.50;;;3.67;;
6513;SDS011;3290;47.716;9.070;2023-07-29T06:05:11;4.00;;;3.57;;
6513;SDS011;3290;47.716;9.070;2023-07-29T06:07:37;5.40;;;3.67;;
6513;SDS011;3290;47.716;9.070;2023-07-29T06:10:03;4.27;;;3.53;;
6513;SDS011;3290;47.716;9.070;2023-07-29T06:12:28;4.63;;;3.47;;
6513;SDS011;3290;47.716;9.070;2023-07-29T06:14:54;3.30;;;3.00;;
6513;SDS011;3290;47.716;9.070;2023-07-29T06:17:19;4.23;;;3.80;;
6513;SDS011;3290;47.716;9.070;2023-07-29T06:19:44;6.33;;;3.53;;
6513;SDS011;3290;47.716;9.070;2023-07-29T06:22:10;5.70;;;4.00;;
6513;SDS011;3290;47.716;9.070;2023-07-29T06:24:35;5.87;;;4.03;;
6513;SDS011;3290;47.716;9.070;2023-07-29T06:27:01;4.97;;;3.77;;
6513;SDS011;3290;47.716;9.070;2023-07-29T06:29:26;6.00;;;3.30;;
6513;SDS011;3290;47.716;9.070;2023-07-29T06:31:51;7.03;;;3.53;;
6513;SDS011;3290;47.716;9.070;2023-07-29T06:34:17;6.93;;;3.87;;
6513;SDS011;3290;47.716;9.070;2023-07-29T06:36:43;7.83;;;4.10;;
6513;SDS011;3290;47.716;9.070;2023-07-29T06:39:09;6.00;;;3.70;;
6513;SDS011;3290;47.716;9.070;2023-07-29T06:41:34;6.57;;;3.83;;
6513;SDS011;3290;47.716;9.070;2023-07-29T06:44:00;5.77;;;3.60;;
6513;SDS011;3290;47.716;9.070;2023-07-29T06:46:25;7.40;;;3.30;;
6513;SDS011;3290;47.716;9.070;2023-07-29T06:48:51;4.23;;;3.27;;
6513;SDS011;3290;47.716;9.070;2023-07-29T06:51:16;6.30;;;3.90;;
6513;SDS011;3290;47.716;9.070;2023-07-29T06:53:41;6.07;;;3.87;;
6513;SDS011;3290;47.716;9.070;2023-07-29T06:56:07;5.70;;;3.27;;
6513;SDS011;3290;47.716;9.070;2023-07-29T06:58:32;8.30;;;3.20;;
6513;SDS011;3290;47.716;9.070;2023-07-29T07:00:58;5.53;;;4.03;;
6513;SDS011;3290;47.716;9.070;2023-07-29T07:03:23;6.20;;;3.80;;
6513;SDS011;3290;47.716;9.070;2023-07-29T07:05:48;9.23;;;4.03;;
6513;SDS011;3290;47.716;9.070;2023-07-29T07:08:14;5.50;;;3.70;;
6513;SDS011;3290;47.716;9.070;2023-07-29T07:10:39;5.10;;;3.90;;
6513;SDS011;3290;47.716;9.070;2023-07-29T07:13:05;5.07;;;3.60;;
6513;SDS011;3290;47.716;9.070;2023-07-29T07:15:30;5.23;;;4.03;;
6513;SDS011;3290;47.716;9.070;2023-07-29T07:17:56;5.30;;;3.90;;
6513;SDS011;3290;47.716;9.070;2023-07-29T07:20:22;6.37;;;4.33;;
6513;SDS011;3290;47.716;9.070;2023-07-29T07:22:47;5.83;;;4.10;;
6513;SDS011;3290;47.716;9.070;2023-07-29T07:25:12;6.80;;;5.00;;
6513;SDS011;3290;47.716;9.070;2023-07-29T07:27:38;6.20;;;4.47;;
6513;SDS011;3290;47.716;9.070;2023-07-29T07:30:03;6.73;;;4.50;;
6513;SDS011;3290;47.716;9.070;2023-07-29T07:32:29;4.67;;;3.90;;
6513;SDS011;3290;47.716;9.070;2023-07-29T07:34:55;5.13;;;3.57;;
6513;SDS011;3290;47.716;9.070;2023-07-29T07:37:20;5.07;;;3.97;;
6513;SDS011;3290;47.716;9.070;2023-07-29T07:39:45;5.97;;;3.57;;
6513;SDS011;3290;47.716;9.070;2023-07-29T07:42:11;5.33;;;3.93;;
6513;SDS011;3290;47.716;9.070;2023-07-29T07:44:36;6.57;;;4.10;;
6513;SDS011;3290;47.716;9.070;2023-07-29T07:47:01;6.00;;;4.20;;
6513;SDS011;3290;47.716;9.070;2023-07-29T07:49:27;7.37;;;4.17;;
6513;SDS011;3290;47.716;9.070;2023-07-29T07:51:52;8.10;;;4.10;;
6513;SDS011;3290;47.716;9.070;2023-07-29T07:54:18;5.43;;;4.00;;
6513;SDS011;3290;47.716;9.070;2023-07-29T07:56:43;6.20;;;3.93;;
6513;SDS011;3290;47.716;9.070;2023-07-29T07:59:09;6.57;;;3.83;;
6513;SDS011;3290;47.716;9.070;2023-07-29T08:01:35;5.33;;;3.90;;
6513;SDS011;3290;47.716;9.070;2023-07-29T08:04:01;4.53;;;3.43;;
6513;SDS011;3290;47.716;9.070;2023-07-29T08:06:27;5.40;;;3.70;;
6513;SDS011;3290;47.716;9.070;2023-07-29T08:08:52;5.27;;;4.10;;
6513;SDS011;3290;47.716;9.070;2023-07-29T08:11:17;5.10;;;3.90;;
6513;SDS011;3290;47.716;9.070;2023-07-29T08:13:43;5.17;;;3.93;;
6513;SDS011;3290;47.716;9.070;2023-07-29T08:16:08;5.50;;;3.93;;
6513;SDS011;3290;47.716;9.070;2023-07-29T08:18:33;5.60;;;4.00;;
6513;SDS011;3290;47.716;9.070;2023-07-29T08:20:59;6.77;;;3.90;;
6513;SDS011;3290;47.716;9.070;2023-07-29T08:23:32;5.37;;;4.13;;
6513;SDS011;3290;47.716;9.070;2023-07-29T08:26:00;5.03;;;3.73;;
6513;SDS011;3290;47.716;9.070;2023-07-29T08:28:31;4.90;;;3.67;;
6513;SDS011;3290;47.716;9.070;2023-07-29T08:30:57;5.83;;;3.70;;
6513;SDS011;3290;47.716;9.070;2023-07-29T08:33:22;6.43;;;4.00;;
6513;SDS011;3290;47.716;9.070;2023-07-29T08:35:48;6.97;;;4.47;;
6513;SDS011;3290;47.716;9.070;2023-07-29T08:38:13;5.17;;;3.93;;
6513;SDS011;3290;47.716;9.070;2023-07-29T08:40:42;5.17;;;4.23;;
6513;SDS011;3290;47.716;9.070;2023-07-29T08:43:29;5.17;;;4.00;;
6513;SDS011;3290;47.716;9.070;2023-07-29T08:45:57;6.33;;;4.50;;
6513;SDS011;3290;47.716;9.070;2023-07-29T08:48:24;6.87;;;3.90;;
6513;SDS011;3290;47.716;9.070;2023-07-29T08:50:57;5.50;;;3.87;;
6513;SDS011;3290;47.716;9.070;2023-07-29T08:53:24;5.37;;;4.20;;
6513;SDS011;3290;47.716;9.070;2023-07-29T08:55:50;4.30;;;3.83;;
6513;SDS011;3290;47.716;9.070;2023-07-29T08:58:16;4.90;;;3.27;;
6513;SDS011;3290;47.716;9.070;2023-07-29T09:00:42;4.67;;;3.70;;
6513;SDS011;3290;47.716;9.070;2023-07-29T09:03:08;4.53;;;3.80;;
6513;SDS011;3290;47.716;9.070;2023-07-29T09:05:34;4.33;;;3.93;;
6513;SDS011;3290;47.716;9.070;2023-07-29T09:07:59;4.37;;;3.27;;
6513;SDS011;3290;47.716;9.070;2023-07-29T09:10:28;5.80;;;4.07;;
6513;SDS011;3290;47.716;9.070;2023-07-29T09:12:53;6.17;;;4.77;;
6513;SDS011;3290;47.716;9.070;2023-07-29T09:15:32;4.70;;;3.23;;
6513;SDS011;3290;47.716;9.070;2023-07-29T09:17:59;4.03;;;3.43;;
6513;SDS011;3290;47.716;9.070;2023-07-29T09:20:34;5.33;;;3.40;;
6513;SDS011;3290;47.716;9.070;2023-07-29T09:22:59;5.30;;;3.60;;
6513;SDS011;3290;47.716;9.070;2023-07-29T09:25:25;4.83;;;3.50;;
6513;SDS011;3290;47.716;9.070;2023-07-29T09:27:52;5.93;;;3.73;;
6513;SDS011;3290;47.716;9.070;2023-07-29T09:30:17;4.77;;;3.97;;
6513;SDS011;3290;47.716;9.070;2023-07-29T09:32:43;6.73;;;3.47;;
6513;SDS011;3290;47.716;9.070;2023-07-29T09:35:12;6.27;;;3.57;;
6513;SDS011;3290;47.716;9.070;2023-07-29T09:37:38;12.27;;;3.47;;
6513;SDS011;3290;47.716;9.070;2023-07-29T09:40:05;7.80;;;3.13;;
6513;SDS011;3290;47.716;9.070;2023-07-29T09:42:31;5.30;;;3.23;;
6513;SDS011;3290;47.716;9.070;2023-07-29T09:44:57;3.50;;;3.20;;
6513;SDS011;3290;47.716;9.070;2023-07-29T09:47:23;5.03;;;3.53;;
6513;SDS011;3290;47.716;9.070;2023-07-29T09:49:50;4.87;;;3.43;;
6513;SDS011;3290;47.716;9.070;2023-07-29T09:52:19;4.10;;;2.80;;
6513;SDS011;3290;47.716;9.070;2023-07-29T09:54:46;5.40;;;3.47;;
6513;SDS011;3290;47.716;9.070;2023-07-29T09:57:14;6.10;;;3.37;;
6513;SDS011;3290;47.716;9.070;2023-07-29T09:59:40;4.70;;;3.40;;
6513;SDS011;3290;47.716;9.070;2023-07-29T10:02:13;5.93;;;3.60;;
6513;SDS011;3290;47.716;9.070;2023-07-29T10:04:43;5.10;;;3.03;;
6513;SDS011;3290;47.716;9.070;2023-07-29T10:07:11;4.53;;;2.93;;
6513;SDS011;3290;47.716;9.070;2023-07-29T10:09:37;5.20;;;3.03;;
6513;SDS011;3290;47.716;9.070;2023-07-29T10:12:05;4.57;;;3.10;;
6513;SDS011;3290;47.716;9.070;2023-07-29T10:14:32;3.80;;;3.33;;
6513;SDS011;3290;47.716;9.070;2023-07-29T10:16:57;3.90;;;3.00;;
6513;SDS011;3290;47.716;9.070;2023-07-29T10:19:24;9.63;;;3.37;;
6513;SDS011;3290;47.716;9.070;2023-07-29T10:21:51;5.53;;;3.60;;
6513;SDS011;3290;47.716;9.070;2023-07-29T10:24:21;4.80;;;2.90;;
6513;SDS011;3290;47.716;9.070;2023-07-29T10:26:54;3.70;;;3.10;;
6513;SDS011;3290;47.716;9.070;2023-07-29T10:29:23;6.10;;;3.40;;
6513;SDS011;3290;47.716;9.070;2023-07-29T10:31:48;6.03;;;3.10;;
6513;SDS011;3290;47.716;9.070;2023-07-29T10:34:18;3.33;;;3.00;;
6513;SDS011;3290;47.716;9.070;2023-07-29T10:36:45;3.80;;;3.20;;
6513;SDS011;3290;47.716;9.070;2023-07-29T10:39:11;4.90;;;2.87;;
6513;SDS011;3290;47.716;9.070;2023-07-29T10:47:29;3.03;;;2.73;;
6513;SDS011;3290;47.716;9.070;2023-07-29T10:49:55;4.10;;;2.90;;
6513;SDS011;3290;47.716;9.070;2023-07-29T10:52:39;3.27;;;2.80;;
6513;SDS011;3290;47.716;9.070;2023-07-29T10:55:29;2.70;;;2.43;;
6513;SDS011;3290;47.716;9.070;2023-07-29T10:58:08;2.83;;;2.53;;
6513;SDS011;3290;47.716;9.070;2023-07-29T11:00:34;3.10;;;2.70;;
6513;SDS011;3290;47.716;9.070;2023-07-29T11:03:05;4.10;;;2.87;;
6513;SDS011;3290;47.716;9.070;2023-07-29T11:08:18;3.20;;;2.67;;
6513;SDS011;3290;47.716;9.070;2023-07-29T11:10:45;6.87;;;3.00;;
6513;SDS011;3290;47.716;9.070;2023-07-29T11:13:23;2.60;;;2.40;;
6513;SDS011;3290;47.716;9.070;2023-07-29T11:15:51;3.20;;;2.60;;
6513;SDS011;3290;47.716;9.070;2023-07-29T11:18:18;3.10;;;2.70;;
6513;SDS011;3290;47.716;9.070;2023-07-29T11:20:46;3.53;;;2.70;;
6513;SDS011;3290;47.716;9.070;2023-07-29T11:23:12;4.70;;;3.10;;
6513;SDS011;3290;47.716;9.070;2023-07-29T11:25:38;4.40;;;3.03;;
6513;SDS011;3290;47.716;9.070;2023-07-29T11:28:04;6.20;;;4.43;;
6513;SDS011;3290;47.716;9.070;2023-07-29T11:30:29;3.53;;;2.97;;
6513;SDS011;3290;47.716;9.070;2023-07-29T11:32:56;3.40;;;2.73;;
6513;SDS011;3290;47.716;9.070;2023-07-29T11:35:23;3.73;;;3.17;;
6513;SDS011;3290;47.716;9.070;2023-07-29T11:37:49;3.77;;;3.20;;
6513;SDS011;3290;47.716;9.070;2023-07-29T11:40:16;4.70;;;3.47;;
6513;SDS011;3290;47.716;9.070;2023-07-29T11:42:43;4.13;;;3.03;;
6513;SDS011;3290;47.716;9.070;2023-07-29T11:45:10;2.80;;;2.57;;
6513;SDS011;3290;47.716;9.070;2023-07-29T11:47:36;3.27;;;2.50;;
6513;SDS011;3290;47.716;9.070;2023-07-29T11:50:05;4.17;;;2.60;;
6513;SDS011;3290;47.716;9.070;2023-07-29T11:52:34;3.23;;;2.60;;
6513;SDS011;3290;47.716;9.070;2023-07-29T11:55:01;4.83;;;3.03;;
6513;SDS011;3290;47.716;9.070;2023-07-29T11:57:28;3.80;;;2.43;;
6513;SDS011;3290;47.716;9.070;2023-07-29T11:59:54;2.90;;;2.30;;
6513;SDS011;3290;47.716;9.070;2023-07-29T12:02:20;4.50;;;2.63;;
6513;SDS011;3290;47.716;9.070;2023-07-29T12:04:48;2.83;;;2.53;;
6513;SDS011;3290;47.716;9.070;2023-07-29T12:07:14;2.83;;;2.50;;
6513;SDS011;3290;47.716;9.070;2023-07-29T12:09:44;3.10;;;2.50;;
6513;SDS011;3290;47.716;9.070;2023-07-29T12:12:10;4.80;;;2.90;;
6513;SDS011;3290;47.716;9.070;2023-07-29T12:14:35;5.93;;;3.03;;
6513;SDS011;3290;47.716;9.070;2023-07-29T12:17:04;3.10;;;2.43;;
6513;SDS011;3290;47.716;9.070;2023-07-29T12:19:31;3.20;;;2.57;;
6513;SDS011;3290;47.716;9.070;2023-07-29T12:22:01;4.87;;;2.90;;
6513;SDS011;3290;47.716;9.070;2023-07-29T12:24:29;4.00;;;2.60;;
6513;SDS011;3290;47.716;9.070;2023-07-29T12:26:55;3.90;;;3.03;;
6513;SDS011;3290;47.716;9.070;2023-07-29T12:29:20;2.87;;;2.53;;
6513;SDS011;3290;47.716;9.070;2023-07-29T12:31:46;3.00;;;2.20;;
6513;SDS011;3290;47.716;9.070;2023-07-29T12:34:21;3.43;;;2.63;;
6513;SDS011;3290;47.716;9.070;2023-07-29T12:36:47;3.30;;;2.33;;
6513;SDS011;3290;47.716;9.070;2023-07-29T12:39:18;5.40;;;3.07;;
6513;SDS011;3290;47.716;9.070;2023-07-29T12:41:48;3.83;;;3.10;;
6513;SDS011;3290;47.716;9.070;2023-07-29T12:44:14;5.33;;;3.37;;
6513;SDS011;3290;47.716;9.070;2023-07-29T12:46:40;5.60;;;3.07;;
6513;SDS011;3290;47.716;9.070;2023-07-29T12:49:05;5.97;;;3.83;;
6513;SDS011;3290;47.716;9.070;2023-07-29T12:51:31;7.10;;;3.93;;
6513;SDS011;3290;47.716;9.070;2023-07-29T12:53:57;3.17;;;2.87;;
6513;SDS011;3290;47.716;9.070;2023-07-29T12:56:22;4.83;;;3.30;;
6513;SDS011;3290;47.716;9.070;2023-07-29T12:58:47;5.00;;;3.07;;
6513;SDS011;3290;47.716;9.070;2023-07-29T13:01:13;6.60;;;3.40;;
6513;SDS011;3290;47.716;9.070;2023-07-29T13:03:42;3.80;;;3.23;;
6513;SDS011;3290;47.716;9.070;2023-07-29T13:06:08;5.33;;;3.60;;
6513;SDS011;3290;47.716;9.070;2023-07-29T13:08:34;4.17;;;3.10;;
6513;SDS011;3290;47.716;9.070;2023-07-29T13:10:59;4.17;;;3.30;;
6513;SDS011;3290;47.716;9.070;2023-07-29T13:13:25;4.00;;;3.13;;
6513;SDS011;3290;47.716;9.070;2023-07-29T13:15:50;6.03;;;3.63;;
6513;SDS011;3290;47.716;9.070;2023-07-29T13:18:16;4.53;;;3.20;;
6513;SDS011;3290;47.716;9.070;2023-07-29T13:20:41;3.70;;;2.77;;
6513;SDS011;3290;47.716;9.070;2023-07-29T13:23:07;4.70;;;3.50;;
6513;SDS011;3290;47.716;9.070;2023-07-29T13:25:32;11.10;;;3.63;;
6513;SDS011;3290;47.716;9.070;2023-07-29T13:27:57;5.80;;;3.40;;
6513;SDS011;3290;47.716;9.070;2023-07-29T13:30:23;4.40;;;3.80;;
6513;SDS011;3290;47.716;9.070;2023-07-29T13:32:48;3.07;;;2.70;;
6513;SDS011;3290;47.716;9.070;2023-07-29T13:35:13;3.03;;;2.73;;
6513;SDS011;3290;47.716;9.070;2023-07-29T13:37:39;4.83;;;2.70;;
6513;SDS011;3290;47.716;9.070;2023-07-29T13:40:04;3.40;;;2.70;;
6513;SDS011;3290;47.716;9.070;2023-07-29T13:42:30;2.53;;;1.50;;
6513;SDS011;3290;47.716;9.070;2023-07-29T13:44:56;3.53;;;2.67;;
6513;SDS011;3290;47.716;9.070;2023-07-29T13:47:21;2.90;;;2.40;;
6513;SDS011;3290;47.716;9.070;2023-07-29T13:49:46;3.60;;;2.30;;
6513;SDS011;3290;47.716;9.070;2023-07-29T13:52:12;2.27;;;1.70;;
6513;SDS011;3290;47.716;9.070;2023-07-29T13:54:39;3.00;;;1.93;;
6513;SDS011;3290;47.716;9.070;2023-07-29T13:57:04;2.47;;;2.03;;
6513;SDS011;3290;47.716;9.070;2023-07-29T13:59:31;1.80;;;1.70;;
6513;SDS011;3290;47.716;9.070;2023-07-29T14:01:57;3.13;;;1.67;;
6513;SDS011;3290;47.716;9.070;2023-07-29T14:04:22;5.83;;;2.27;;
6513;SDS011;3290;47.716;9.070;2023-07-29T14:06:47;2.43;;;2.03;;
6513;SDS011;3290;47.716;9.070;2023-07-29T14:09:13;3.90;;;2.50;;
6513;SDS011;3290;47.716;9.070;2023-07-29T14:11:38;4.07;;;2.50;;
6513;SDS011;3290;47.716;9.070;2023-07-29T14:14:04;2.90;;;2.60;;
6513;SDS011;3290;47.716;9.070;2023-07-29T14:16:29;5.30;;;2.60;;
6513;SDS011;3290;47.716;9.070;2023-07-29T14:18:54;4.47;;;2.73;;
6513;SDS011;3290;47.716;9.070;2023-07-29T14:21:20;3.27;;;2.03;;
6513;SDS011;3290;47.716;9.070;2023-07-29T14:23:45;3.10;;;2.20;;
6513;SDS011;3290;47.716;9.070;2023-07-29T14:26:11;2.70;;;2.10;;
6513;SDS011;3290;47.716;9.070;2023-07-29T14:28:36;3.40;;;2.30;;
6513;SDS011;3290;47.716;9.070;2023-07-29T14:31:02;2.93;;;2.47;;
6513;SDS011;3290;47.716;9.070;2023-07-29T14:33:27;4.70;;;2.30;;
6513;SDS011;3290;47.716;9.070;2023-07-29T14:35:53;3.80;;;2.53;;
6513;SDS011;3290;47.716;9.070;2023-07-29T14:38:18;3.17;;;2.87;;
6513;SDS011;3290;47.716;9.070;2023-07-29T14:40:44;3.03;;;2.40;;
6513;SDS011;3290;47.716;9.070;2023-07-29T14:43:12;3.70;;;2.60;;
6513;SDS011;3290;47.716;9.070;2023-07-29T14:45:38;2.90;;;2.57;;
6513;SDS011;3290;47.716;9.070;2023-07-29T14:48:03;5.87;;;3.47;;
6513;SDS011;3290;47.716;9.070;2023-07-29T14:50:29;5.80;;;3.13;;
6513;SDS011;3290;47.716;9.070;2023-07-29T14:52:54;4.50;;;2.90;;
6513;SDS011;3290;47.716;9.070;2023-07-29T14:55:19;3.10;;;2.67;;
6513;SDS011;3290;47.716;9.070;2023-07-29T14:57:45;3.60;;;2.40;;
6513;SDS011;3290;47.716;9.070;2023-07-29T15:00:11;2.93;;;2.23;;
6513;SDS011;3290;47.716;9.070;2023-07-29T15:02:37;6.13;;;3.07;;
6513;SDS011;3290;47.716;9.070;2023-07-29T15:05:02;7.83;;;3.60;;
6513;SDS011;3290;47.716;9.070;2023-07-29T15:07:27;6.33;;;3.10;;
6513;SDS011;3290;47.716;9.070;2023-07-29T15:09:53;7.70;;;3.17;;
6513;SDS011;3290;47.716;9.070;2023-07-29T15:12:18;3.37;;;2.77;;
6513;SDS011;3290;47.716;9.070;2023-07-29T15:14:43;4.10;;;3.03;;
6513;SDS011;3290;47.716;9.070;2023-07-29T15:17:09;4.30;;;2.93;;
6513;SDS011;3290;47.716;9.070;2023-07-29T15:19:34;3.97;;;3.00;;
6513;SDS011;3290;47.716;9.070;2023-07-29T15:21:59;3.63;;;3.17;;
6513;SDS011;3290;47.716;9.070;2023-07-29T15:24:25;11.47;;;5.03;;